sensor_id;sensor_type;location;lat;lon;timestamp;pressure;altitude;pressure_sealevel;temperature;humidity
74327;BME280;62745;51.060;13.786;2023-04-24T00:01:14;99023.16;;;12.01;87.24
74327;BME280;62745;51.060;13.786;2023-04-24T00:03:40;99016.28;;;11.94;87.61
74327;BME280;62745;51.060;13.786;2023-04-24T00:06:06;99011.28;;;11.97;87.71
74327;BME280;62745;51.060;13.786;2023-04-24T00:08:33;99005.34;;;11.95;88.04
74327;BME280;62745;51.060;13.786;2023-04-24T00:10:58;98993.84;;;11.95;88.34
74327;BME280;62745;51.060;13.786;2023-04-24T00:13:24;99005.56;;;12.05;88.06
74327;BME280;62745;51.060;13.786;2023-04-24T00:15:49;98993.25;;;12.04;87.62
74327;BME280;62745;51.060;13.786;2023-04-24T00:18:15;99004.66;;;12.12;87.27
74327;BME280;62745;51.060;13.786;2023-04-24T00:20:40;99000.38;;;12.11;87.53
74327;BME280;62745;51.060;13.786;2023-04-24T00:23:05;99012.00;;;12.16;87.53
74327;BME280;62745;51.060;13.786;2023-04-24T00:25:31;99015.34;;;12.23;87.91
74327;BME280;62745;51.060;13.786;2023-04-24T00:27:56;99027.59;;;12.31;87.11
74327;BME280;62745;51.060;13.786;2023-04-24T00:30:21;99021.28;;;12.37;86.78
74327;BME280;62745;51.060;13.786;2023-04-24T00:32:46;99027.38;;;12.44;86.96
74327;BME280;62745;51.060;13.786;2023-04-24T00:35:12;99012.44;;;12.37;86.81
74327;BME280;62745;51.060;13.786;2023-04-24T00:37:37;99022.22;;;12.43;87.08
74327;BME280;62745;51.060;13.786;2023-04-24T00:40:03;99022.25;;;12.31;86.83
74327;BME280;62745;51.060;13.786;2023-04-24T00:42:28;99034.81;;;12.30;87.09
74327;BME280;62745;51.060;13.786;2023-04-24T00:44:53;99027.84;;;12.29;87.74
74327;BME280;62745;51.060;13.786;2023-04-24T00:47:19;99024.09;;;12.19;88.00
74327;BME280;62745;51.060;13.786;2023-04-24T00:49:45;99020.94;;;12.22;87.35
74327;BME280;62745;51.060;13.786;2023-04-24T00:52:10;99011.41;;;12.02;88.53
74327;BME280;62745;51.060;13.786;2023-04-24T00:54:37;99004.31;;;11.96;88.72
74327;BME280;62745;51.060;13.786;2023-04-24T00:57:03;99012.22;;;12.03;88.59
74327;BME280;62745;51.060;13.786;2023-04-24T00:59:29;99022.47;;;12.18;88.48
74327;BME280;62745;51.060;13.786;2023-04-24T01:01:55;99014.66;;;12.16;87.82
74327;BME280;62745;51.060;13.786;2023-04-24T01:04:20;99002.91;;;12.05;88.24
74327;BME280;62745;51.060;13.786;2023-04-24T01:06:46;99008.38;;;12.22;87.70
74327;BME280;62745;51.060;13.786;2023-04-24T01:09:12;99009.78;;;12.13;88.21
74327;BME280;62745;51.060;13.786;2023-04-24T01:11:37;99005.22;;;12.25;88.09
74327;BME280;62745;51.060;13.786;2023-04-24T01:14:03;98999.91;;;12.14;88.60
74327;BME280;62745;51.060;13.786;2023-04-24T01:16:28;98994.78;;;12.12;88.34
74327;BME280;62745;51.060;13.786;2023-04-24T01:18:54;99001.97;;;12.23;88.16
74327;BME280;62745;51.060;13.786;2023-04-24T01:21:19;99012.91;;;12.22;88.58
74327;BME280;62745;51.060;13.786;2023-04-24T01:23:46;99009.22;;;12.11;88.62
74327;BME280;62745;51.060;13.786;2023-04-24T01:26:13;99018.97;;;12.05;89.27
74327;BME280;62745;51.060;13.786;2023-04-24T01:28:39;99020.34;;;12.08;89.25
74327;BME280;62745;51.060;13.786;2023-04-24T01:31:04;99028.84;;;12.05;88.95
74327;BME280;62745;51.060;13.786;2023-04-24T01:33:29;99027.59;;;11.96;89.79
74327;BME280;62745;51.060;13.786;2023-04-24T01:35:55;99015.47;;;11.93;89.55
74327;BME280;62745;51.060;13.786;2023-04-24T01:38:20;99021.28;;;12.02;89.26
74327;BME280;62745;51.060;13.786;2023-04-24T01:40:46;99019.09;;;12.11;89.04
74327;BME280;62745;51.060;13.786;2023-04-24T01:43:12;99026.75;;;12.07;89.04
74327;BME280;62745;51.060;13.786;2023-04-24T01:45:37;99019.91;;;11.99;89.50
74327;BME280;62745;51.060;13.786;2023-04-24T01:48:03;99025.47;;;11.98;89.85
74327;BME280;62745;51.060;13.786;2023-04-24T01:50:28;99022.34;;;12.01;89.43
74327;BME280;62745;51.060;13.786;2023-04-24T01:52:53;99017.47;;;11.98;89.37
74327;BME280;62745;51.060;13.786;2023-04-24T01:55:18;99013.97;;;11.97;89.40
74327;BME280;62745;51.060;13.786;2023-04-24T01:57:44;99017.47;;;12.10;89.11
74327;BME280;62745;51.060;13.786;2023-04-24T02:00:10;99006.97;;;12.20;88.30
74327;BME280;62745;51.060;13.786;2023-04-24T02:02:37;98998.50;;;12.11;88.39
74327;BME280;62745;51.060;13.786;2023-04-24T02:05:02;99015.34;;;12.23;88.68
74327;BME280;62745;51.060;13.786;2023-04-24T02:07:28;99005.00;;;12.39;87.45
74327;BME280;62745;51.060;13.786;2023-04-24T02:09:53;99008.84;;;12.31;87.85
74327;BME280;62745;51.060;13.786;2023-04-24T02:12:19;99023.84;;;12.20;88.29
74327;BME280;62745;51.060;13.786;2023-04-24T02:14:44;99011.06;;;12.11;89.27
74327;BME280;62745;51.060;13.786;2023-04-24T02:17:09;99008.16;;;12.12;89.39
74327;BME280;62745;51.060;13.786;2023-04-24T02:19:37;99011.53;;;11.96;89.59
74327;BME280;62745;51.060;13.786;2023-04-24T02:22:02;99013.00;;;11.92;90.64
74327;BME280;62745;51.060;13.786;2023-04-24T02:24:27;98996.13;;;11.91;90.17
74327;BME280;62745;51.060;13.786;2023-04-24T02:26:52;99013.47;;;11.89;90.51
74327;BME280;62745;51.060;13.786;2023-04-24T02:29:18;99015.81;;;11.85;90.69
74327;BME280;62745;51.060;13.786;2023-04-24T02:31:43;99016.03;;;11.84;91.07
74327;BME280;62745;51.060;13.786;2023-04-24T02:34:08;99009.56;;;11.73;89.91
74327;BME280;62745;51.060;13.786;2023-04-24T02:36:34;99002.94;;;11.64;90.92
74327;BME280;62745;51.060;13.786;2023-04-24T02:38:59;99013.31;;;11.72;91.04
74327;BME280;62745;51.060;13.786;2023-04-24T02:41:26;99015.41;;;11.70;91.38
74327;BME280;62745;51.060;13.786;2023-04-24T02:43:56;99024.22;;;11.70;91.74
74327;BME280;62745;51.060;13.786;2023-04-24T02:46:21;99010.78;;;11.77;91.83
74327;BME280;62745;51.060;13.786;2023-04-24T02:48:46;99015.81;;;11.97;91.06
74327;BME280;62745;51.060;13.786;2023-04-24T02:51:11;98992.47;;;11.74;91.10
74327;BME280;62745;51.060;13.786;2023-04-24T02:53:37;99005.16;;;11.67;91.49
74327;BME280;62745;51.060;13.786;2023-04-24T02:56:02;99006.44;;;11.64;92.10
74327;BME280;62745;51.060;13.786;2023-04-24T02:58:27;98995.25;;;11.56;92.00
74327;BME280;62745;51.060;13.786;2023-04-24T03:00:54;99013.44;;;11.77;91.37
74327;BME280;62745;51.060;13.786;2023-04-24T03:03:21;99006.66;;;11.63;92.54
74327;BME280;62745;51.060;13.786;2023-04-24T03:05:46;99012.03;;;11.63;92.07
74327;BME280;62745;51.060;13.786;2023-04-24T03:08:12;99006.47;;;11.76;91.76
74327;BME280;62745;51.060;13.786;2023-04-24T03:10:37;99008.06;;;11.65;90.66
74327;BME280;62745;51.060;13.786;2023-04-24T03:13:02;99016.16;;;11.59;91.78
74327;BME280;62745;51.060;13.786;2023-04-24T03:15:28;99015.34;;;11.58;92.17
74327;BME280;62745;51.060;13.786;2023-04-24T03:17:53;99016.66;;;11.67;92.76
74327;BME280;62745;51.060;13.786;2023-04-24T03:20:18;99020.50;;;11.71;92.09
74327;BME280;62745;51.060;13.786;2023-04-24T03:22:43;99014.81;;;11.68;92.30
74327;BME280;62745;51.060;13.786;2023-04-24T03:25:09;98995.34;;;11.49;92.34
74327;BME280;62745;51.060;13.786;2023-04-24T03:27:35;99004.94;;;11.68;92.46
74327;BME280;62745;51.060;13.786;2023-04-24T03:30:00;99007.94;;;11.72;92.15
74327;BME280;62745;51.060;13.786;2023-04-24T03:32:25;99009.16;;;11.76;91.56
74327;BME280;62745;51.060;13.786;2023-04-24T03:34:51;99006.22;;;11.66;91.82
74327;BME280;62745;51.060;13.786;2023-04-24T03:37:16;99006.44;;;11.64;91.43
74327;BME280;62745;51.060;13.786;2023-04-24T03:39:42;99019.47;;;11.61;92.21
74327;BME280;62745;51.060;13.786;2023-04-24T03:42:08;99000.75;;;11.61;92.46
74327;BME280;62745;51.060;13.786;2023-04-24T03:44:33;99015.16;;;11.71;91.64
74327;BME280;62745;51.060;13.786;2023-04-24T03:46:59;99013.75;;;11.69;91.55
74327;BME280;62745;51.060;13.786;2023-04-24T03:49:24;99017.03;;;11.59;92.29
74327;BME280;62745;51.060;13.786;2023-04-24T03:51:49;99014.19;;;11.54;92.38
74327;BME280;62745;51.060;13.786;2023-04-24T03:54:15;99022.81;;;11.56;92.44
74327;BME280;62745;51.060;13.786;2023-04-24T03:56:41;99032.34;;;11.52;92.69
74327;BME280;62745;51.060;13.786;2023-04-24T03:59:06;99025.47;;;11.44;92.46
74327;BME280;62745;51.060;13.786;2023-04-24T04:01:31;99031.75;;;11.50;92.44
74327;BME280;62745;51.060;13.786;2023-04-24T04:03:56;99050.69;;;11.49;92.45
74327;BME280;62745;51.060;13.786;2023-04-24T04:06:22;99050.09;;;11.47;92.85
74327;BME280;62745;51.060;13.786;2023-04-24T04:08:47;99043.22;;;11.39;93.09
74327;BME280;62745;51.060;13.786;2023-04-24T04:11:13;99037.50;;;11.35;93.25
74327;BME280;62745;51.060;13.786;2023-04-24T04:13:48;99055.13;;;11.55;92.70
74327;BME280;62745;51.060;13.786;2023-04-24T04:16:14;99054.06;;;11.56;92.51
74327;BME280;62745;51.060;13.786;2023-04-24T04:18:41;99054.91;;;11.56;92.47
74327;BME280;62745;51.060;13.786;2023-04-24T04:21:07;99051.56;;;11.61;91.87
74327;BME280;62745;51.060;13.786;2023-04-24T04:23:32;99036.16;;;11.56;92.26
74327;BME280;62745;51.060;13.786;2023-04-24T04:25:58;99040.25;;;11.59;92.19
74327;BME280;62745;51.060;13.786;2023-04-24T04:28:23;99033.50;;;11.56;91.44
74327;BME280;62745;51.060;13.786;2023-04-24T04:30:49;99048.44;;;11.75;90.86
74327;BME280;62745;51.060;13.786;2023-04-24T04:33:18;99053.97;;;11.81;90.27
74327;BME280;62745;51.060;13.786;2023-04-24T04:35:44;99041.44;;;11.74;88.31
74327;BME280;62745;51.060;13.786;2023-04-24T04:38:09;99055.81;;;11.92;87.51
74327;BME280;62745;51.060;13.786;2023-04-24T04:40:36;99050.03;;;11.95;88.08
74327;BME280;62745;51.060;13.786;2023-04-24T04:43:01;99037.94;;;12.04;88.21
74327;BME280;62745;51.060;13.786;2023-04-24T04:45:27;99045.88;;;12.11;88.46
74327;BME280;62745;51.060;13.786;2023-04-24T04:47:53;99048.31;;;12.12;88.47
74327;BME280;62745;51.060;13.786;2023-04-24T04:50:20;99048.16;;;12.07;85.81
74327;BME280;62745;51.060;13.786;2023-04-24T04:52:45;99044.69;;;12.18;85.92
74327;BME280;62745;51.060;13.786;2023-04-24T04:55:11;99050.88;;;12.19;87.05
74327;BME280;62745;51.060;13.786;2023-04-24T04:57:38;99042.97;;;12.12;85.95
74327;BME280;62745;51.060;13.786;2023-04-24T05:00:04;99044.56;;;12.25;85.42
74327;BME280;62745;51.060;13.786;2023-04-24T05:02:29;99037.72;;;12.17;85.04
74327;BME280;62745;51.060;13.786;2023-04-24T05:04:55;99031.31;;;12.18;85.26
74327;BME280;62745;51.060;13.786;2023-04-24T05:07:20;99056.81;;;12.32;84.47
74327;BME280;62745;51.060;13.786;2023-04-24T05:09:45;99056.47;;;12.41;83.65
74327;BME280;62745;51.060;13.786;2023-04-24T05:12:11;99060.19;;;12.51;83.31
74327;BME280;62745;51.060;13.786;2023-04-24T05:14:36;99051.56;;;12.61;84.26
74327;BME280;62745;51.060;13.786;2023-04-24T05:17:01;99058.41;;;12.80;76.82
74327;BME280;62745;51.060;13.786;2023-04-24T05:19:27;99060.00;;;12.93;78.43
74327;BME280;62745;51.060;13.786;2023-04-24T05:21:53;99052.28;;;13.08;81.25
74327;BME280;62745;51.060;13.786;2023-04-24T05:24:18;99042.75;;;13.01;82.58
74327;BME280;62745;51.060;13.786;2023-04-24T05:26:43;99058.13;;;13.05;84.61
74327;BME280;62745;51.060;13.786;2023-04-24T05:29:08;99061.84;;;13.04;85.21
74327;BME280;62745;51.060;13.786;2023-04-24T05:31:33;99059.63;;;13.13;84.17
74327;BME280;62745;51.060;13.786;2023-04-24T05:33:59;99056.38;;;13.11;83.02
74327;BME280;62745;51.060;13.786;2023-04-24T05:36:24;99046.56;;;13.28;80.86
74327;BME280;62745;51.060;13.786;2023-04-24T05:38:50;99049.94;;;13.23;82.66
74327;BME280;62745;51.060;13.786;2023-04-24T05:41:15;99051.44;;;13.31;82.21
74327;BME280;62745;51.060;13.786;2023-04-24T05:43:40;99053.16;;;13.37;80.45
74327;BME280;62745;51.060;13.786;2023-04-24T05:46:06;99056.69;;;13.54;79.63
74327;BME280;62745;51.060;13.786;2023-04-24T05:48:31;99055.88;;;13.54;78.51
74327;BME280;62745;51.060;13.786;2023-04-24T05:50:56;99058.88;;;13.58;78.12
74327;BME280;62745;51.060;13.786;2023-04-24T05:53:22;99057.13;;;13.63;77.05
74327;BME280;62745;51.060;13.786;2023-04-24T05:55:47;99048.09;;;13.69;77.38
74327;BME280;62745;51.060;13.786;2023-04-24T05:58:12;99057.16;;;13.80;76.82
74327;BME280;62745;51.060;13.786;2023-04-24T06:00:38;99059.84;;;13.80;76.84
74327;BME280;62745;51.060;13.786;2023-04-24T06:03:06;99060.50;;;13.87;75.11
74327;BME280;62745;51.060;13.786;2023-04-24T06:05:31;99051.69;;;13.75;73.99
74327;BME280;62745;51.060;13.786;2023-04-24T06:07:57;99070.81;;;13.78;72.72
74327;BME280;62745;51.060;13.786;2023-04-24T06:10:22;99055.59;;;13.84;73.56
74327;BME280;62745;51.060;13.786;2023-04-24T06:12:47;99064.16;;;13.98;72.55
74327;BME280;62745;51.060;13.786;2023-04-24T06:15:12;99065.13;;;14.08;71.49
74327;BME280;62745;51.060;13.786;2023-04-24T06:17:38;99065.22;;;14.13;70.96
74327;BME280;62745;51.060;13.786;2023-04-24T06:20:04;99060.00;;;14.24;71.05
74327;BME280;62745;51.060;13.786;2023-04-24T06:22:30;99057.31;;;14.24;70.36
74327;BME280;62745;51.060;13.786;2023-04-24T06:24:56;99053.66;;;14.30;70.22
74327;BME280;62745;51.060;13.786;2023-04-24T06:27:21;99057.81;;;14.37;69.90
74327;BME280;62745;51.060;13.786;2023-04-24T06:29:46;99071.09;;;14.44;69.08
74327;BME280;62745;51.060;13.786;2023-04-24T06:32:17;99058.63;;;14.38;69.43
74327;BME280;62745;51.060;13.786;2023-04-24T06:34:42;99077.06;;;14.46;67.91
74327;BME280;62745;51.060;13.786;2023-04-24T06:37:08;99068.00;;;14.52;67.44
74327;BME280;62745;51.060;13.786;2023-04-24T06:39:33;99073.94;;;14.54;67.43
74327;BME280;62745;51.060;13.786;2023-04-24T06:41:58;99067.22;;;14.73;68.42
74327;BME280;62745;51.060;13.786;2023-04-24T06:44:23;99067.13;;;14.85;69.51
74327;BME280;62745;51.060;13.786;2023-04-24T06:46:49;99066.50;;;15.00;69.01
74327;BME280;62745;51.060;13.786;2023-04-24T06:49:14;99070.88;;;15.06;69.52
74327;BME280;62745;51.060;13.786;2023-04-24T06:51:41;99075.63;;;15.21;66.36
74327;BME280;62745;51.060;13.786;2023-04-24T06:54:14;99079.88;;;15.39;68.02
74327;BME280;62745;51.060;13.786;2023-04-24T06:56:39;99077.22;;;15.44;66.64
74327;BME280;62745;51.060;13.786;2023-04-24T06:59:05;99080.63;;;15.34;63.32
74327;BME280;62745;51.060;13.786;2023-04-24T07:01:30;99068.84;;;15.40;63.72
74327;BME280;62745;51.060;13.786;2023-04-24T07:03:55;99080.44;;;15.41;64.44
74327;BME280;62745;51.060;13.786;2023-04-24T07:06:20;99079.44;;;15.47;63.55
74327;BME280;62745;51.060;13.786;2023-04-24T07:08:47;99072.25;;;15.30;61.18
74327;BME280;62745;51.060;13.786;2023-04-24T07:11:13;99076.63;;;15.37;61.29
74327;BME280;62745;51.060;13.786;2023-04-24T07:13:38;99073.72;;;15.65;60.29
74327;BME280;62745;51.060;13.786;2023-04-24T07:16:07;99082.97;;;15.74;60.39
74327;BME280;62745;51.060;13.786;2023-04-24T07:18:32;99087.44;;;15.90;59.71
74327;BME280;62745;51.060;13.786;2023-04-24T07:20:58;99090.03;;;15.80;59.13
74327;BME280;62745;51.060;13.786;2023-04-24T07:23:23;99084.72;;;16.17;58.71
74327;BME280;62745;51.060;13.786;2023-04-24T07:25:48;99089.50;;;16.10;59.31
74327;BME280;62745;51.060;13.786;2023-04-24T07:28:13;99088.91;;;15.76;59.09
74327;BME280;62745;51.060;13.786;2023-04-24T07:30:39;99077.13;;;15.82;56.96
74327;BME280;62745;51.060;13.786;2023-04-24T07:33:04;99095.50;;;16.17;58.70
74327;BME280;62745;51.060;13.786;2023-04-24T07:35:29;99087.25;;;15.70;59.41
74327;BME280;62745;51.060;13.786;2023-04-24T07:37:55;99086.53;;;15.58;59.18
74327;BME280;62745;51.060;13.786;2023-04-24T07:40:21;99091.63;;;15.54;59.34
74327;BME280;62745;51.060;13.786;2023-04-24T07:42:46;99086.78;;;15.56;58.68
74327;BME280;62745;51.060;13.786;2023-04-24T07:45:13;99087.63;;;15.35;59.23
74327;BME280;62745;51.060;13.786;2023-04-24T07:47:39;99093.72;;;15.47;58.79
74327;BME280;62745;51.060;13.786;2023-04-24T07:50:05;99089.19;;;15.53;59.66
74327;BME280;62745;51.060;13.786;2023-04-24T07:52:30;99098.88;;;15.76;59.21
74327;BME280;62745;51.060;13.786;2023-04-24T07:54:55;99100.34;;;15.88;58.21
74327;BME280;62745;51.060;13.786;2023-04-24T07:57:24;99113.50;;;15.85;58.66
74327;BME280;62745;51.060;13.786;2023-04-24T07:59:50;99096.25;;;15.59;59.18
74327;BME280;62745;51.060;13.786;2023-04-24T08:02:15;99083.25;;;15.78;57.66
74327;BME280;62745;51.060;13.786;2023-04-24T08:04:40;99109.78;;;15.91;57.67
74327;BME280;62745;51.060;13.786;2023-04-24T08:07:05;99106.19;;;15.80;58.52
74327;BME280;62745;51.060;13.786;2023-04-24T08:09:31;99107.66;;;15.66;58.48
74327;BME280;62745;51.060;13.786;2023-04-24T08:11:56;99107.41;;;15.68;59.07
74327;BME280;62745;51.060;13.786;2023-04-24T08:14:25;99100.31;;;15.83;58.83
74327;BME280;62745;51.060;13.786;2023-04-24T08:16:50;99098.00;;;15.97;59.52
74327;BME280;62745;51.060;13.786;2023-04-24T08:19:15;99101.56;;;16.35;58.28
74327;BME280;62745;51.060;13.786;2023-04-24T08:21:40;99101.63;;;16.45;58.40
74327;BME280;62745;51.060;13.786;2023-04-24T08:24:06;99108.97;;;16.54;57.80
74327;BME280;62745;51.060;13.786;2023-04-24T08:26:33;99104.66;;;16.16;58.54
74327;BME280;62745;51.060;13.786;2023-04-24T08:28:58;99092.44;;;16.09;59.29
74327;BME280;62745;51.060;13.786;2023-04-24T08:31:23;99102.03;;;16.27;56.98
74327;BME280;62745;51.060;13.786;2023-04-24T08:33:50;99094.06;;;16.10;55.80
74327;BME280;62745;51.060;13.786;2023-04-24T08:36:16;99090.16;;;15.95;56.91
74327;BME280;62745;51.060;13.786;2023-04-24T08:38:42;99096.03;;;16.19;58.80
74327;BME280;62745;51.060;13.786;2023-04-24T08:41:07;99103.22;;;16.09;58.40
74327;BME280;62745;51.060;13.786;2023-04-24T08:43:33;99105.63;;;16.37;58.15
74327;BME280;62745;51.060;13.786;2023-04-24T08:45:58;99107.63;;;16.20;56.92
74327;BME280;62745;51.060;13.786;2023-04-24T08:48:25;99100.00;;;16.12;57.28
74327;BME280;62745;51.060;13.786;2023-04-24T08:50:50;99094.00;;;16.00;57.19
74327;BME280;62745;51.060;13.786;2023-04-24T08:53:16;99108.69;;;15.87;57.04
74327;BME280;62745;51.060;13.786;2023-04-24T08:55:43;99088.34;;;15.74;55.93
74327;BME280;62745;51.060;13.786;2023-04-24T08:58:11;99113.41;;;15.75;56.46
74327;BME280;62745;51.060;13.786;2023-04-24T09:00:39;99112.84;;;15.73;56.29
74327;BME280;62745;51.060;13.786;2023-04-24T09:03:05;99130.06;;;15.72;56.60
74327;BME280;62745;51.060;13.786;2023-04-24T09:05:31;99111.59;;;15.80;56.31
74327;BME280;62745;51.060;13.786;2023-04-24T09:07:59;99113.00;;;16.15;56.11
74327;BME280;62745;51.060;13.786;2023-04-24T09:10:25;99109.97;;;16.11;54.02
74327;BME280;62745;51.060;13.786;2023-04-24T09:12:51;99130.81;;;15.94;53.57
74327;BME280;62745;51.060;13.786;2023-04-24T09:15:18;99116.69;;;16.09;52.99
74327;BME280;62745;51.060;13.786;2023-04-24T09:17:44;99120.72;;;16.06;53.01
74327;BME280;62745;51.060;13.786;2023-04-24T09:20:09;99111.09;;;16.15;53.42
74327;BME280;62745;51.060;13.786;2023-04-24T09:22:36;99117.09;;;16.22;53.40
74327;BME280;62745;51.060;13.786;2023-04-24T09:25:06;99115.34;;;16.11;53.68
74327;BME280;62745;51.060;13.786;2023-04-24T09:27:35;99110.75;;;16.07;54.86
74327;BME280;62745;51.060;13.786;2023-04-24T09:30:02;99122.03;;;15.77;54.53
74327;BME280;62745;51.060;13.786;2023-04-24T09:32:27;99114.53;;;15.57;54.43
74327;BME280;62745;51.060;13.786;2023-04-24T09:35:11;99111.69;;;15.63;56.19
74327;BME280;62745;51.060;13.786;2023-04-24T09:37:38;99114.94;;;15.66;56.29
74327;BME280;62745;51.060;13.786;2023-04-24T09:40:20;99107.56;;;15.83;56.26
74327;BME280;62745;51.060;13.786;2023-04-24T09:42:46;99113.53;;;16.17;56.78
74327;BME280;62745;51.060;13.786;2023-04-24T09:45:16;99120.00;;;16.16;55.71
74327;BME280;62745;51.060;13.786;2023-04-24T09:47:41;99117.81;;;16.13;55.37
74327;BME280;62745;51.060;13.786;2023-04-24T09:50:16;99113.25;;;15.86;54.87
74327;BME280;62745;51.060;13.786;2023-04-24T09:52:44;99112.19;;;15.87;55.55
74327;BME280;62745;51.060;13.786;2023-04-24T09:55:20;99111.16;;;15.93;55.24
74327;BME280;62745;51.060;13.786;2023-04-24T09:57:51;99114.63;;;15.62;55.30
74327;BME280;62745;51.060;13.786;2023-04-24T10:00:18;99099.59;;;15.66;55.08
74327;BME280;62745;51.060;13.786;2023-04-24T10:02:44;99115.78;;;15.49;55.97
74327;BME280;62745;51.060;13.786;2023-04-24T10:05:11;99117.47;;;15.77;55.61
74327;BME280;62745;51.060;13.786;2023-04-24T10:07:37;99114.06;;;16.14;54.60
74327;BME280;62745;51.060;13.786;2023-04-24T10:10:03;99113.72;;;16.10;53.60
74327;BME280;62745;51.060;13.786;2023-04-24T10:12:29;99115.97;;;16.18;54.91
74327;BME280;62745;51.060;13.786;2023-04-24T10:14:55;99113.47;;;16.12;53.80
74327;BME280;62745;51.060;13.786;2023-04-24T10:17:21;99126.22;;;16.16;52.65
74327;BME280;62745;51.060;13.786;2023-04-24T10:19:49;99112.63;;;16.06;53.65
74327;BME280;62745;51.060;13.786;2023-04-24T10:22:14;99115.59;;;16.05;54.55
74327;BME280;62745;51.060;13.786;2023-04-24T10:24:41;99111.22;;;15.72;53.91
74327;BME280;62745;51.060;13.786;2023-04-24T10:27:07;99111.06;;;15.83;53.69
74327;BME280;62745;51.060;13.786;2023-04-24T10:29:35;99100.75;;;16.02;53.78
74327;BME280;62745;51.060;13.786;2023-04-24T10:32:01;99108.72;;;15.92;52.49
74327;BME280;62745;51.060;13.786;2023-04-24T10:34:26;99106.00;;;16.19;51.83
74327;BME280;62745;51.060;13.786;2023-04-24T10:36:53;99110.06;;;16.53;52.46
74327;BME280;62745;51.060;13.786;2023-04-24T10:39:20;99095.44;;;16.81;50.79
74327;BME280;62745;51.060;13.786;2023-04-24T10:41:48;99099.72;;;16.77;51.86
74327;BME280;62745;51.060;13.786;2023-04-24T10:44:15;99098.91;;;16.77;51.45
74327;BME280;62745;51.060;13.786;2023-04-24T10:46:53;99093.72;;;17.18;50.55
74327;BME280;62745;51.060;13.786;2023-04-24T10:49:28;99095.63;;;17.17;50.09
74327;BME280;62745;51.060;13.786;2023-04-24T10:52:00;99096.38;;;17.07;51.54
74327;BME280;62745;51.060;13.786;2023-04-24T10:54:27;99093.50;;;16.77;51.36
74327;BME280;62745;51.060;13.786;2023-04-24T10:59:49;99099.81;;;16.55;51.51
74327;BME280;62745;51.060;13.786;2023-04-24T11:02:15;99093.06;;;16.53;51.56
74327;BME280;62745;51.060;13.786;2023-04-24T11:04:44;99093.03;;;16.85;50.53
74327;BME280;62745;51.060;13.786;2023-04-24T11:07:10;99096.81;;;16.89;50.81
74327;BME280;62745;51.060;13.786;2023-04-24T11:09:36;99101.38;;;16.46;53.24
74327;BME280;62745;51.060;13.786;2023-04-24T11:12:04;99100.06;;;16.17;53.57
74327;BME280;62745;51.060;13.786;2023-04-24T11:17:43;99099.97;;;16.07;53.94
74327;BME280;62745;51.060;13.786;2023-04-24T11:20:10;99103.72;;;16.06;54.68
74327;BME280;62745;51.060;13.786;2023-04-24T11:22:39;99106.00;;;16.19;53.48
74327;BME280;62745;51.060;13.786;2023-04-24T11:25:05;99107.47;;;16.00;54.44
74327;BME280;62745;51.060;13.786;2023-04-24T11:27:42;99119.50;;;15.92;54.77
74327;BME280;62745;51.060;13.786;2023-04-24T11:30:09;99122.69;;;16.16;54.15
74327;BME280;62745;51.060;13.786;2023-04-24T11:32:39;99121.53;;;16.07;53.77
74327;BME280;62745;51.060;13.786;2023-04-24T11:35:10;99116.53;;;16.20;54.02
74327;BME280;62745;51.060;13.786;2023-04-24T11:37:42;99115.28;;;16.01;55.03
74327;BME280;62745;51.060;13.786;2023-04-24T11:40:10;99105.84;;;16.31;54.29
74327;BME280;62745;51.060;13.786;2023-04-24T11:42:44;99125.69;;;16.51;53.66
74327;BME280;62745;51.060;13.786;2023-04-24T11:45:16;99115.22;;;16.60;53.95
74327;BME280;62745;51.060;13.786;2023-04-24T11:47:43;99108.84;;;17.19;52.21
74327;BME280;62745;51.060;13.786;2023-04-24T11:50:11;99101.78;;;17.80;49.21
74327;BME280;62745;51.060;13.786;2023-04-24T11:52:38;99097.69;;;17.67;49.31
74327;BME280;62745;51.060;13.786;2023-04-24T11:55:04;99100.38;;;17.67;49.37
74327;BME280;62745;51.060;13.786;2023-04-24T11:57:31;99091.25;;;17.94;49.15
74327;BME280;62745;51.060;13.786;2023-04-24T12:00:00;99095.31;;;17.81;48.33
74327;BME280;62745;51.060;13.786;2023-04-24T12:02:26;99094.22;;;17.82;49.37
74327;BME280;62745;51.060;13.786;2023-04-24T12:04:53;99101.16;;;17.53;50.44
74327;BME280;62745;51.060;13.786;2023-04-24T12:07:18;99090.22;;;18.15;48.17
74327;BME280;62745;51.060;13.786;2023-04-24T12:09:46;99086.97;;;18.33;47.65
74327;BME280;62745;51.060;13.786;2023-04-24T12:12:13;99104.88;;;17.31;49.88
74327;BME280;62745;51.060;13.786;2023-04-24T12:14:57;99115.13;;;16.82;51.44
74327;BME280;62745;51.060;13.786;2023-04-24T12:17:28;99111.09;;;16.15;52.20
74327;BME280;62745;51.060;13.786;2023-04-24T12:19:58;99131.69;;;16.00;50.66
74327;BME280;62745;51.060;13.786;2023-04-24T12:22:24;99111.66;;;15.90;51.22
74327;BME280;62745;51.060;13.786;2023-04-24T12:25:01;99111.34;;;15.82;50.30
74327;BME280;62745;51.060;13.786;2023-04-24T12:27:30;99113.25;;;15.86;50.28
74327;BME280;62745;51.060;13.786;2023-04-24T12:29:58;99118.16;;;15.94;50.14
74327;BME280;62745;51.060;13.786;2023-04-24T12:32:24;99121.34;;;15.86;48.15
74327;BME280;62745;51.060;13.786;2023-04-24T12:34:51;99140.16;;;15.81;47.70
74327;BME280;62745;51.060;13.786;2023-04-24T12:37:20;99088.41;;;15.79;47.22
74327;BME280;62745;51.060;13.786;2023-04-24T12:40:07;99120.75;;;16.75;45.51
74327;BME280;62745;51.060;13.786;2023-04-24T12:42:33;99114.38;;;16.92;44.68
74327;BME280;62745;51.060;13.786;2023-04-24T12:45:00;99106.50;;;17.42;43.06
74327;BME280;62745;51.060;13.786;2023-04-24T12:47:26;99152.56;;;17.16;43.44
74327;BME280;62745;51.060;13.786;2023-04-24T12:49:52;99128.41;;;16.94;44.15
74327;BME280;62745;51.060;13.786;2023-04-24T12:52:21;99113.91;;;17.05;44.16